Time;durP1;ratioP1;P1;durP2;ratioP2;P2;SDS_P1;SDS_P2;PMS_P1;PMS_P2;Temp;Humidity;BMP_temperature;BMP_pressure;BME280_temperature;BME280_humidity;BME280_pressure;Samples;Min_cycle;Max_cycle;Signal;HPM_P1;HPM_P2
2023/11/13 00:01:28;;;;;;;57.20;37.35;;;10.20;99.90;;;;;;5000523;28;20195;-53
2023/11/13 00:03:54;;;;;;;60.85;41.00;;;10.30;99.90;;;;;;5052621;28;20032;-54
2023/11/13 00:06:20;;;;;;;92.90;55.17;;;10.30;99.90;;;;;;5052532;28;20024;-54
2023/11/13 00:08:45;;;;;;;64.57;42.72;;;10.30;99.90;;;;;;5052787;28;20107;-53
2023/11/13 00:11:11;;;;;;;76.80;45.95;;;10.30;99.90;;;;;;5052806;28;20610;-54
2023/11/13 00:13:37;;;;;;;86.22;52.58;;;10.20;99.90;;;;;;5017337;28;20045;-55
2023/11/13 00:16:03;;;;;;;78.70;51.88;;;10.20;99.90;;;;;;5017057;28;20444;-54
2023/11/13 00:18:31;;;;;;;70.10;46.72;;;10.20;99.90;;;;;;5000835;28;20092;-54
2023/11/13 00:20:58;;;;;;;79.50;49.83;;;10.00;99.90;;;;;;5001079;28;20051;-54
2023/11/13 00:23:24;;;;;;;83.10;53.53;;;10.00;99.90;;;;;;5052558;28;20041;-54
2023/11/13 00:25:50;;;;;;;78.45;45.92;;;10.10;99.90;;;;;;5052254;28;20098;-54
2023/11/13 00:28:16;;;;;;;59.42;38.83;;;10.10;99.90;;;;;;5000727;28;20116;-54
2023/11/13 00:30:41;;;;;;;47.53;34.58;;;10.10;99.90;;;;;;5052317;28;20033;-54
2023/11/13 00:33:08;;;;;;;47.05;31.83;;;10.10;99.90;;;;;;5052312;28;20143;-54
2023/11/13 00:35:34;;;;;;;47.40;32.42;;;10.00;99.90;;;;;;5066287;28;20028;-54
2023/11/13 00:38:00;;;;;;;47.78;31.42;;;;;;;;;;5071999;28;20384;-53
2023/11/13 00:40:26;;;;;;;43.55;29.50;;;10.00;99.90;;;;;;5071970;28;20059;-55
2023/11/13 00:42:51;;;;;;;38.55;26.67;;;9.90;99.90;;;;;;5072229;28;20103;-53
2023/11/13 00:45:17;;;;;;;37.88;26.73;;;9.90;99.90;;;;;;5072095;28;20024;-53
2023/11/13 00:47:43;;;;;;;40.42;28.85;;;9.90;99.90;;;;;;5071999;28;20020;-55
2023/11/13 00:50:11;;;;;;;74.07;45.95;;;9.60;99.90;;;;;;5071833;28;20020;-53
2023/11/13 00:52:37;;;;;;;49.50;32.05;;;9.80;99.90;;;;;;5071929;28;20033;-53
2023/11/13 00:55:04;;;;;;;29.98;22.58;;;9.70;99.90;;;;;;5072245;28;20111;-53
2023/11/13 00:57:30;;;;;;;31.92;20.80;;;9.70;99.90;;;;;;5053089;28;20505;-55
2023/11/13 00:59:55;;;;;;;25.95;19.48;;;9.80;99.90;;;;;;5071459;28;20151;-53
2023/11/13 01:02:23;;;;;;;24.90;17.92;;;9.70;99.90;;;;;;5072002;28;20021;-53
2023/11/13 01:04:49;;;;;;;27.35;19.92;;;9.60;99.90;;;;;;5020839;28;20049;-55
2023/11/13 01:07:18;;;;;;;27.23;20.58;;;9.50;99.90;;;;;;5071846;28;20029;-54
2023/11/13 01:09:45;;;;;;;27.23;20.73;;;9.50;99.90;;;;;;5021251;28;20087;-54
2023/11/13 01:12:11;;;;;;;31.77;21.90;;;9.40;99.90;;;;;;5020587;28;20040;-54
2023/11/13 01:14:37;;;;;;;30.77;21.67;;;9.50;99.90;;;;;;5071619;28;20038;-55
2023/11/13 01:17:03;;;;;;;31.60;21.98;;;9.50;99.90;;;;;;5064449;28;20033;-55
2023/11/13 01:19:30;;;;;;;31.33;22.50;;;9.50;99.90;;;;;;5051573;28;20029;-54
2023/11/13 01:21:56;;;;;;;33.35;23.70;;;9.60;99.90;;;;;;5051568;28;20044;-54
2023/11/13 01:24:22;;;;;;;33.65;22.63;;;9.60;99.90;;;;;;4999777;28;20128;-57
2023/11/13 01:26:49;;;;;;;29.10;21.42;;;9.50;99.90;;;;;;5051663;28;20100;-54
2023/11/13 01:29:15;;;;;;;30.95;22.40;;;9.40;99.90;;;;;;5049733;28;20450;-56
2023/11/13 01:31:41;;;;;;;29.30;21.60;;;9.40;99.90;;;;;;5051637;28;20137;-54
2023/11/13 01:34:12;;;;;;;29.77;21.60;;;9.40;99.90;;;;;;5051396;28;20039;-54
2023/11/13 01:36:43;;;;;;;32.08;21.73;;;9.50;99.90;;;;;;5033530;28;20492;-55
2023/11/13 01:39:09;;;;;;;27.98;21.17;;;9.50;99.90;;;;;;5051503;28;20013;-55
2023/11/13 01:41:36;;;;;;;29.60;22.25;;;9.50;99.90;;;;;;5051304;28;20075;-54
2023/11/13 01:44:03;;;;;;;30.88;21.02;;;9.40;99.90;;;;;;5051261;28;20029;-54
2023/11/13 01:46:30;;;;;;;42.90;28.70;;;9.40;99.90;;;;;;5051342;28;20057;-54
2023/11/13 01:48:56;;;;;;;47.85;31.10;;;9.30;99.90;;;;;;5051361;28;20029;-54
2023/11/13 01:51:24;;;;;;;66.18;41.22;;;9.30;99.90;;;;;;5051256;28;20523;-54
2023/11/13 01:53:50;;;;;;;78.90;47.60;;;9.30;99.90;;;;;;5051280;28;20029;-54
2023/11/13 01:56:17;;;;;;;41.97;29.48;;;9.40;99.90;;;;;;5051289;28;20067;-54
2023/11/13 01:58:44;;;;;;;57.15;37.53;;;9.40;99.90;;;;;;5051100;28;20021;-53
2023/11/13 02:01:10;;;;;;;42.33;27.58;;;9.40;99.90;;;;;;5051333;28;20052;-54
2023/11/13 02:03:37;;;;;;;33.47;24.75;;;;;;;;;;5051159;28;20025;-54
2023/11/13 02:06:04;;;;;;;35.60;24.88;;;8.60;99.90;;;;;;5051501;28;20036;-53
2023/11/13 02:08:29;;;;;;;27.83;21.42;;;8.60;99.90;;;;;;5032282;28;20143;-53
2023/11/13 02:10:55;;;;;;;31.92;22.92;;;8.50;99.90;;;;;;5050686;28;20108;-53
2023/11/13 02:13:21;;;;;;;39.17;28.92;;;8.60;99.90;;;;;;5035708;28;20171;-54
2023/11/13 02:15:48;;;;;;;39.33;27.23;;;8.70;99.90;;;;;;5054798;28;20433;-54
2023/11/13 02:18:14;;;;;;;26.15;20.27;;;8.90;99.90;;;;;;5054710;28;20531;-53
2023/11/13 02:20:41;;;;;;;32.92;19.70;;;9.00;99.90;;;;;;5053585;28;20036;-54
2023/11/13 02:23:07;;;;;;;24.83;19.67;;;9.00;99.90;;;;;;5033280;28;20037;-55
2023/11/13 02:25:37;;;;;;;26.45;19.60;;;9.00;99.90;;;;;;5054435;28;20096;-54
2023/11/13 02:28:05;;;;;;;25.55;17.92;;;9.10;99.90;;;;;;5054616;28;20079;-55
2023/11/13 02:30:37;;;;;;;24.90;18.23;;;9.10;99.90;;;;;;5035784;28;20037;-52
2023/11/13 02:33:03;;;;;;;24.27;18.65;;;9.00;99.90;;;;;;5054811;28;20029;-54
2023/11/13 02:35:29;;;;;;;24.52;17.85;;;9.00;99.90;;;;;;5054506;28;20104;-54
2023/11/13 02:37:55;;;;;;;24.23;17.95;;;9.00;99.90;;;;;;5054389;28;20064;-55
2023/11/13 02:40:21;;;;;;;23.33;16.92;;;9.10;99.90;;;;;;5054144;28;20134;-56
2023/11/13 02:42:47;;;;;;;21.77;15.90;;;9.00;99.90;;;;;;5054398;28;20025;-54
2023/11/13 02:45:12;;;;;;;22.55;17.02;;;9.00;99.90;;;;;;5054050;28;20017;-53
2023/11/13 02:47:38;;;;;;;26.88;19.23;;;9.00;99.90;;;;;;5052367;28;20124;-54
2023/11/13 02:50:05;;;;;;;24.67;18.08;;;9.10;99.90;;;;;;5052521;28;20052;-54
2023/11/13 02:52:31;;;;;;;23.00;17.90;;;9.10;99.90;;;;;;4999433;28;20040;-53
2023/11/13 02:54:56;;;;;;;24.92;17.85;;;9.20;99.90;;;;;;5053999;28;20087;-53
2023/11/13 02:57:22;;;;;;;22.63;17.70;;;9.20;99.90;;;;;;5054336;28;20064;-53
2023/11/13 02:59:48;;;;;;;22.90;16.88;;;9.20;99.90;;;;;;5002448;28;20123;-54
2023/11/13 03:02:14;;;;;;;22.55;17.13;;;9.30;99.90;;;;;;5054109;28;20057;-53
2023/11/13 03:04:41;;;;;;;23.88;18.27;;;9.30;99.90;;;;;;5002561;28;20033;-54
2023/11/13 03:07:06;;;;;;;28.75;19.83;;;9.40;99.90;;;;;;5002417;28;20037;-53
2023/11/13 03:09:33;;;;;;;27.27;19.45;;;9.40;99.90;;;;;;5053858;28;20511;-53
2023/11/13 03:11:59;;;;;;;25.50;17.80;;;9.50;99.90;;;;;;5054004;28;20033;-55
2023/11/13 03:14:25;;;;;;;23.05;18.40;;;9.50;99.90;;;;;;5053971;28;20055;-54
2023/11/13 03:16:50;;;;;;;22.65;17.55;;;9.50;99.90;;;;;;5053867;28;20476;-54
2023/11/13 03:19:16;;;;;;;24.90;16.42;;;9.40;99.90;;;;;;5053853;28;20036;-54
2023/11/13 03:21:42;;;;;;;21.40;16.88;;;9.30;99.90;;;;;;5053534;28;20036;-54
2023/11/13 03:24:08;;;;;;;21.70;17.38;;;9.30;99.90;;;;;;5053440;28;20544;-54
2023/11/13 03:26:34;;;;;;;21.70;16.35;;;9.30;99.90;;;;;;5053640;28;20033;-53
2023/11/13 03:29:00;;;;;;;20.08;16.27;;;9.40;99.90;;;;;;5053985;28;20025;-53
2023/11/13 03:31:26;;;;;;;21.63;15.95;;;9.40;99.90;;;;;;5053459;28;20027;-53
2023/11/13 03:33:53;;;;;;;33.17;20.48;;;9.40;99.90;;;;;;5053275;28;20033;-54
2023/11/13 03:36:19;;;;;;;25.60;18.23;;;9.40;99.90;;;;;;5053137;28;20064;-54
2023/11/13 03:38:45;;;;;;;22.10;16.33;;;9.40;99.90;;;;;;5001721;28;20126;-54
2023/11/13 03:41:11;;;;;;;22.42;15.82;;;9.40;99.90;;;;;;5001766;28;20080;-53
2023/11/13 03:43:37;;;;;;;24.25;15.45;;;9.40;99.90;;;;;;5053287;28;20100;-54
2023/11/13 03:46:03;;;;;;;22.60;15.13;;;9.40;99.90;;;;;;5052798;28;20031;-52
2023/11/13 03:48:28;;;;;;;19.70;14.93;;;9.50;99.90;;;;;;5029841;28;20041;-54
2023/11/13 03:50:54;;;;;;;22.25;15.85;;;9.50;99.90;;;;;;5052906;28;20028;-54
2023/11/13 03:53:20;;;;;;;21.33;16.13;;;9.50;99.90;;;;;;5017912;28;20043;-55
2023/11/13 03:55:46;;;;;;;16.75;13.70;;;9.60;99.90;;;;;;5052879;28;20029;-53
2023/11/13 03:58:12;;;;;;;17.17;13.13;;;9.60;99.90;;;;;;5051649;28;20095;-55
2023/11/13 04:00:38;;;;;;;19.05;13.40;;;9.60;99.90;;;;;;5052836;28;20052;-55
2023/11/13 04:03:04;;;;;;;19.20;13.80;;;9.60;99.90;;;;;;5052883;28;20033;-54
2023/11/13 04:05:30;;;;;;;17.67;13.98;;;9.60;99.90;;;;;;5053381;28;20529;-55
2023/11/13 04:07:57;;;;;;;16.77;13.35;;;9.60;99.90;;;;;;5052556;28;20031;-53
2023/11/13 04:10:23;;;;;;;25.60;14.95;;;;;;;;;;5052572;28;20041;-53
2023/11/13 04:12:50;;;;;;;19.23;14.43;;;;;;;;;;5011497;28;20140;-55
2023/11/13 04:15:16;;;;;;;31.25;17.20;;;;;;;;;;5061277;28;20067;-53
2023/11/13 04:17:42;;;;;;;19.25;14.45;;;;;;;;;;5062851;28;20491;-54
2023/11/13 04:20:12;;;;;;;20.45;15.13;;;;;;;;;;5061605;28;20056;-54
2023/11/13 04:22:40;;;;;;;28.58;19.48;;;;;;;;;;5061214;28;20028;-53
2023/11/13 04:25:06;;;;;;;30.45;21.00;;;;;;;;;;5063461;28;20074;-53
2023/11/13 04:27:32;;;;;;;34.22;24.85;;;;;;;;;;5072403;28;20043;-56
2023/11/13 04:29:59;;;;;;;22.33;16.83;;;;;;;;;;5057227;28;20013;-55
2023/11/13 04:32:25;;;;;;;40.25;24.95;;;9.10;99.90;;;;;;5051430;28;20069;-54
2023/11/13 04:34:51;;;;;;;23.85;16.25;;;8.40;99.90;;;;;;5051741;28;20075;-54
2023/11/13 04:37:18;;;;;;;22.15;15.75;;;7.70;99.90;;;;;;5052065;28;20037;-54
2023/11/13 04:39:45;;;;;;;18.67;11.75;;;7.50;99.90;;;;;;5051847;28;20049;-55
2023/11/13 04:42:11;;;;;;;16.83;10.18;;;;;;;;;;5051007;28;20033;-55
2023/11/13 04:44:37;;;;;;;10.43;8.20;;;6.90;99.90;;;;;;5052272;28;20029;-54
2023/11/13 04:47:03;;;;;;;11.90;8.98;;;;;;;;;;5056870;28;20031;-54
2023/11/13 04:49:29;;;;;;;12.10;8.70;;;6.30;99.90;;;;;;5051866;28;20045;-55
2023/11/13 04:51:55;;;;;;;13.25;9.23;;;6.30;99.90;;;;;;5051743;28;20025;-55
2023/11/13 04:54:21;;;;;;;14.75;9.60;;;6.40;99.90;;;;;;5051748;28;20308;-55
2023/11/13 04:56:47;;;;;;;15.98;10.60;;;6.30;99.90;;;;;;5051805;28;20021;-56
2023/11/13 04:59:12;;;;;;;16.15;10.77;;;6.40;99.90;;;;;;5052107;28;20079;-55
2023/11/13 05:01:39;;;;;;;16.75;11.70;;;6.50;99.90;;;;;;5051984;28;20029;-55
2023/11/13 05:04:09;;;;;;;13.75;10.52;;;6.50;99.90;;;;;;5051675;28;20127;-55
2023/11/13 05:06:38;;;;;;;13.18;8.75;;;6.60;99.90;;;;;;5000076;28;20086;-55
2023/11/13 05:09:04;;;;;;;13.30;7.30;;;6.40;99.90;;;;;;5051738;28;20025;-55
2023/11/13 05:11:31;;;;;;;10.57;6.43;;;6.30;99.90;;;;;;5052177;28;20029;-55
2023/11/13 05:13:56;;;;;;;8.30;5.40;;;6.10;99.90;;;;;;5051820;28;20495;-55
2023/11/13 05:16:23;;;;;;;13.70;9.55;;;5.90;99.90;;;;;;5051627;28;20025;-54
2023/11/13 05:18:51;;;;;;;13.00;8.77;;;6.20;99.90;;;;;;5051660;28;20550;-56
2023/11/13 05:21:18;;;;;;;14.07;8.88;;;6.40;99.90;;;;;;5051090;28;20115;-53
2023/11/13 05:23:44;;;;;;;14.55;9.05;;;6.50;99.90;;;;;;5054621;28;20040;-54
2023/11/13 05:26:10;;;;;;;14.90;9.52;;;6.50;99.90;;;;;;5051590;28;20548;-54
2023/11/13 05:28:35;;;;;;;12.45;8.27;;;6.60;99.90;;;;;;5051682;28;20025;-55
2023/11/13 05:31:02;;;;;;;12.30;7.88;;;6.70;99.90;;;;;;5016232;28;20045;-55
2023/11/13 05:33:28;;;;;;;13.27;8.00;;;6.50;99.90;;;;;;5051997;28;20392;-56
2023/11/13 05:35:54;;;;;;;12.43;8.50;;;6.30;99.90;;;;;;5032688;28;20249;-55
2023/11/13 05:38:19;;;;;;;12.48;8.50;;;6.20;99.90;;;;;;5051406;28;20532;-54
2023/11/13 05:40:46;;;;;;;11.55;8.32;;;6.40;99.90;;;;;;5051412;28;20532;-56
2023/11/13 05:43:12;;;;;;;11.88;8.80;;;6.50;99.90;;;;;;5051799;28;20033;-54
2023/11/13 05:45:38;;;;;;;11.35;8.27;;;6.70;99.90;;;;;;5069210;28;20064;-55
2023/11/13 05:48:07;;;;;;;10.43;7.22;;;6.80;99.90;;;;;;5075418;28;20059;-55
2023/11/13 05:50:33;;;;;;;16.23;9.52;;;6.80;99.90;;;;;;5075288;28;20483;-55
2023/11/13 05:52:59;;;;;;;19.42;9.85;;;6.70;99.90;;;;;;5075277;28;20024;-54
2023/11/13 05:55:24;;;;;;;10.75;6.38;;;6.80;99.90;;;;;;5075372;28;20063;-54
2023/11/13 05:57:51;;;;;;;10.70;6.78;;;6.70;99.90;;;;;;5023464;28;20097;-54
2023/11/13 06:00:18;;;;;;;9.60;6.30;;;6.50;99.90;;;;;;5069245;28;20033;-54
2023/11/13 06:02:48;;;;;;;9.43;6.53;;;6.30;99.90;;;;;;5075287;28;20074;-54
2023/11/13 06:05:14;;;;;;;5.93;4.13;;;6.30;99.90;;;;;;5075117;28;20020;-55
2023/11/13 06:07:40;;;;;;;8.73;5.70;;;6.20;99.90;;;;;;5075064;28;20032;-54
2023/11/13 06:10:10;;;;;;;7.30;5.45;;;6.70;99.90;;;;;;5060065;28;20036;-55
2023/11/13 06:12:39;;;;;;;9.82;5.93;;;7.80;99.90;;;;;;5055180;28;20475;-55
2023/11/13 06:15:16;;;;;;;12.95;6.85;;;;;;;;;;5054956;28;20021;-55
2023/11/13 06:17:44;;;;;;;9.15;5.90;;;9.60;99.90;;;;;;5055075;28;20488;-55
2023/11/13 06:20:13;;;;;;;8.90;6.38;;;;;;;;;;5069176;28;20063;-55
2023/11/13 06:22:40;;;;;;;11.48;7.50;;;;;;;;;;5056404;28;20089;-55
2023/11/13 06:25:06;;;;;;;12.05;6.78;;;;;;;;;;5074533;28;20129;-55
2023/11/13 06:27:32;;;;;;;9.18;7.43;;;12.10;99.90;;;;;;5039091;28;20072;-54
2023/11/13 06:29:59;;;;;;;11.82;7.43;;;;;;;;;;5074514;28;20056;-54
2023/11/13 06:32:25;;;;;;;12.20;7.57;;;14.30;99.90;;;;;;5074433;28;20032;-55
2023/11/13 06:34:50;;;;;;;10.80;7.70;;;15.20;99.90;;;;;;5074983;28;20406;-56
2023/11/13 06:37:16;;;;;;;13.05;9.32;;;16.30;99.90;;;;;;5073605;28;20463;-55
2023/11/13 06:39:44;;;;;;;58.03;27.52;;;;;;;;;;5074161;28;20032;-54
2023/11/13 06:42:10;;;;;;;19.30;11.20;;;;;;;;;;5074298;28;20036;-55
2023/11/13 06:44:38;;;;;;;12.60;7.45;;;;;;;;;;5074455;28;20024;-55
2023/11/13 06:47:05;;;;;;;9.95;6.85;;;25.50;89.60;;;;;;5074264;28;20067;-55
2023/11/13 06:49:31;;;;;;;10.80;7.28;;;;;;;;;;5037794;28;20395;-52
2023/11/13 06:51:57;;;;;;;17.63;11.63;;;;;;;;;;5054158;28;20063;-53
2023/11/13 06:54:24;;;;;;;18.27;11.25;;;;;;;;;;5054261;28;20040;-53
2023/11/13 06:56:50;;;;;;;21.92;12.93;;;;;;;;;;5053952;28;20059;-53
2023/11/13 06:59:17;;;;;;;22.27;13.10;;;;;;;;;;5053505;28;20070;-53
2023/11/13 07:01:43;;;;;;;26.45;12.15;;;;;;;;;;5059075;28;20124;-53
2023/11/13 07:04:10;;;;;;;16.13;10.10;;;;;;;;;;5056928;28;20032;-53
2023/11/13 07:06:41;;;;;;;15.27;9.68;;;24.40;99.90;;;;;;5053804;28;20027;-52
2023/11/13 07:09:10;;;;;;;10.68;7.32;;;23.00;79.80;;;;;;5053754;28;20037;-52
2023/11/13 07:11:43;;;;;;;9.75;7.97;;;22.90;80.40;;;;;;5053783;28;20047;-53
2023/11/13 07:14:10;;;;;;;10.45;8.60;;;24.10;94.50;;;;;;5058826;28;20036;-53
2023/11/13 07:16:36;;;;;;;11.73;7.70;;;24.80;83.50;;;;;;5056051;28;20032;-53
2023/11/13 07:19:06;;;;;;;16.67;9.57;;;;;;;;;;5061683;28;20057;-53
2023/11/13 07:21:32;;;;;;;21.67;11.65;;;;;;;;;;5064149;28;20464;-53
2023/11/13 07:24:03;;;;;;;30.40;18.20;;;19.10;85.40;;;;;;5062330;28;20025;-52
2023/11/13 07:26:29;;;;;;;35.60;23.42;;;;;;;;;;5027751;28;20064;-52
2023/11/13 07:28:55;;;;;;;50.78;34.25;;;17.50;90.30;;;;;;5063863;28;20108;-52
2023/11/13 07:31:22;;;;;;;75.68;54.40;;;;;;;;;;5062785;28;20155;-53
2023/11/13 07:33:48;;;;;;;44.05;30.90;;;16.70;91.80;;;;;;5064174;28;20064;-53
2023/11/13 07:36:14;;;;;;;43.03;26.67;;;16.90;92.40;;;;;;5064514;28;20030;-53
2023/11/13 07:38:42;;;;;;;32.63;23.83;;;16.90;92.60;;;;;;5073662;28;20029;-56
2023/11/13 07:41:11;;;;;;;33.63;20.90;;;16.60;92.60;;;;;;5073164;28;20106;-58
2023/11/13 07:43:44;;;;;;;37.50;24.55;;;16.50;92.90;;;;;;5073327;28;20031;-54
2023/11/13 07:46:13;;;;;;;27.17;21.45;;;17.00;93.50;;;;;;5062267;28;20025;-54
2023/11/13 07:48:43;;;;;;;27.90;20.35;;;16.90;93.00;;;;;;5063582;28;20099;-53
2023/11/13 07:51:08;;;;;;;36.95;24.45;;;17.30;93.10;;;;;;5062699;28;20017;-50
2023/11/13 07:53:38;;;;;;;36.67;24.75;;;17.50;92.90;;;;;;5061589;28;20069;-59
2023/11/13 07:56:04;;;;;;;33.15;24.80;;;18.20;92.70;;;;;;5033129;28;20059;-50
2023/11/13 07:58:30;;;;;;;34.50;22.20;;;18.30;92.80;;;;;;5032928;28;20401;-52
2023/11/13 08:00:57;;;;;;;39.65;25.75;;;17.90;91.70;;;;;;5048124;28;20029;-52
2023/11/13 08:03:24;;;;;;;52.60;40.15;;;17.90;91.90;;;;;;5061379;28;20041;-54
2023/11/13 08:05:50;;;;;;;49.47;35.38;;;18.10;92.00;;;;;;5072769;28;20013;-55
2023/11/13 08:08:17;;;;;;;54.08;37.42;;;18.20;92.30;;;;;;5072563;28;20025;-53
2023/11/13 08:10:49;;;;;;;49.78;36.03;;;18.70;92.30;;;;;;5071878;28;20031;-54
2023/11/13 08:13:17;;;;;;;43.42;31.80;;;;;;;;;;5060212;28;20044;-53
2023/11/13 08:15:43;;;;;;;43.92;33.47;;;21.40;92.80;;;;;;5052618;28;20051;-53
2023/11/13 08:18:14;;;;;;;40.05;31.55;;;;;;;;;;5064777;28;20033;-53
2023/11/13 08:20:44;;;;;;;30.65;25.27;;;;;;;;;;5072513;28;20032;-51
2023/11/13 08:23:11;;;;;;;27.60;20.88;;;24.90;85.50;;;;;;5072925;28;20036;-55
2023/11/13 08:25:50;;;;;;;26.50;20.08;;;;;;;;;;5060599;28;20086;-53
2023/11/13 08:28:16;;;;;;;22.33;17.63;;;;;;;;;;5045635;28;20014;-54
2023/11/13 08:30:43;;;;;;;17.10;14.52;;;;;;;;;;5039965;28;20041;-55
2023/11/13 08:33:10;;;;;;;19.30;14.00;;;27.60;80.00;;;;;;5049881;28;20469;-53
2023/11/13 08:35:36;;;;;;;17.45;14.27;;;26.80;79.60;;;;;;5046194;28;20428;-53
2023/11/13 08:38:02;;;;;;;20.38;14.88;;;;;;;;;;4993571;28;20179;-54
2023/11/13 08:40:31;;;;;;;19.00;15.63;;;;;;;;;;5038679;28;20477;-53
2023/11/13 08:42:58;;;;;;;13.70;11.48;;;;;;;;;;5042028;28;20468;-52
2023/11/13 08:45:24;;;;;;;15.85;12.52;;;;;;;;;;5044508;28;20021;-54
2023/11/13 08:47:51;;;;;;;7.18;6.40;;;;;;;;;;5040725;28;20075;-53
2023/11/13 08:50:18;;;;;;;9.55;7.05;;;;;;;;;;5041833;28;20032;-55
2023/11/13 08:52:47;;;;;;;10.93;7.57;;;;;;;;;;5040701;28;20450;-51
2023/11/13 08:55:17;;;;;;;11.63;8.02;;;30.40;74.00;;;;;;5044430;28;20460;-52
2023/11/13 08:57:44;;;;;;;13.20;9.00;;;30.60;74.70;;;;;;5042607;28;20033;-53
2023/11/13 09:00:18;;;;;;;10.40;8.02;;;31.10;74.30;;;;;;5041481;28;20086;-53
2023/11/13 09:02:56;;;;;;;16.20;9.38;;;31.00;73.40;;;;;;4995095;28;20044;-56
2023/11/13 09:05:25;;;;;;;10.10;8.73;;;31.20;73.40;;;;;;5042288;28;20024;-55
2023/11/13 09:07:53;;;;;;;7.70;6.53;;;31.20;73.60;;;;;;5039954;28;20040;-51
2023/11/13 09:10:26;;;;;;;7.85;6.50;;;31.20;72.60;;;;;;5042437;28;20028;-55
2023/11/13 09:12:52;;;;;;;9.13;7.28;;;;;;;;;;5050871;28;20041;-52
2023/11/13 09:15:18;;;;;;;8.77;6.72;;;;;;;;;;5046654;28;20025;-55
2023/11/13 09:17:45;;;;;;;9.13;6.90;;;;;;;;;;5026224;28;20114;-54
2023/11/13 09:20:16;;;;;;;10.52;9.43;;;;;;;;;;5043864;28;20037;-52
2023/11/13 09:22:43;;;;;;;9.30;6.85;;;;;;;;;;5046417;28;20025;-54
2023/11/13 09:25:15;;;;;;;7.55;6.75;;;;;;;;;;5047654;28;20112;-53
2023/11/13 09:27:42;;;;;;;9.52;7.93;;;;;;;;;;5052443;28;20499;-54
2023/11/13 09:30:10;;;;;;;7.72;6.82;;;;;;;;;;5051564;28;20389;-52
2023/11/13 09:32:38;;;;;;;8.50;6.47;;;;;;;;;;5033334;28;20490;-54
2023/11/13 09:35:05;;;;;;;8.25;6.78;;;29.50;74.00;;;;;;5045199;28;20124;-55
2023/11/13 09:37:31;;;;;;;8.52;7.13;;;;;;;;;;4930044;28;20116;-53
2023/11/13 09:39:57;;;;;;;14.20;10.32;;;29.90;75.90;;;;;;5053329;28;20037;-50
2023/11/13 09:42:23;;;;;;;9.13;7.07;;;;;;;;;;4995931;28;20063;-51
2023/11/13 09:44:49;;;;;;;8.15;6.53;;;30.60;73.70;;;;;;5044648;28;20025;-53
2023/11/13 09:47:17;;;;;;;8.40;7.05;;;;;;;;;;5051553;28;20029;-51
2023/11/13 09:49:51;;;;;;;8.65;7.40;;;;;;;;;;5053931;28;20112;-53
2023/11/13 09:52:18;;;;;;;9.88;7.50;;;;;;;;;;4992765;28;20064;-52
2023/11/13 09:54:45;;;;;;;14.20;11.43;;;;;;;;;;5049699;28;20025;-53
2023/11/13 09:57:13;;;;;;;8.23;6.82;;;31.40;94.70;;;;;;5048080;28;20029;-52
2023/11/13 09:59:41;;;;;;;12.52;8.35;;;31.30;84.40;;;;;;5048906;28;20039;-52
2023/11/13 10:02:10;;;;;;;5.78;5.00;;;31.50;83.90;;;;;;5046354;28;20025;-53
2023/11/13 10:04:36;;;;;;;5.60;5.00;;;;;;;;;;5017097;28;20046;-53
2023/11/13 10:07:04;;;;;;;9.73;8.73;;;;;;;;;;5044874;28;20056;-53
2023/11/13 10:09:30;;;;;;;7.57;5.22;;;31.90;71.30;;;;;;5047220;28;20116;-54
2023/11/13 10:12:02;;;;;;;6.90;5.70;;;;;;;;;;5050898;28;20029;-52
2023/11/13 10:14:29;;;;;;;7.32;5.22;;;;;;;;;;5050018;28;20029;-52
2023/11/13 10:17:02;;;;;;;8.27;5.97;;;;;;;;;;5056290;28;20496;-52
2023/11/13 10:19:28;;;;;;;5.70;4.85;;;;;;;;;;5051251;28;20056;-53
2023/11/13 10:21:58;;;;;;;6.13;4.35;;;;;;;;;;5015854;28;20041;-53
2023/11/13 10:24:25;;;;;;;7.32;4.57;;;;;;;;;;5045921;28;20029;-53
2023/11/13 10:26:58;;;;;;;9.10;8.07;;;;;;;;;;5051271;28;20025;-54
2023/11/13 10:29:27;;;;;;;8.52;4.72;;;;;;;;;;5046506;28;20029;-55
2023/11/13 10:31:56;;;;;;;11.48;8.68;;;;;;;;;;5045539;28;20025;-53
2023/11/13 10:34:22;;;;;;;7.53;5.07;;;;;;;;;;5044886;28;20427;-51
2023/11/13 10:37:15;;;;;;;6.00;3.53;;;;;;;;;;5042487;28;20044;-53
2023/11/13 10:39:44;;;;;;;4.93;4.05;;;30.10;69.40;;;;;;5048676;28;20029;-53
2023/11/13 10:42:28;;;;;;;6.15;4.22;;;;;;;;;;4980669;28;20074;-52
2023/11/13 10:44:58;;;;;;;9.05;5.45;;;;;;;;;;4949555;29;20047;-51
2023/11/13 10:47:30;;;;;;;7.78;4.93;;;;;;;;;;4951261;29;20039;-51
2023/11/13 10:49:57;;;;;;;6.68;5.10;;;31.50;91.60;;;;;;4950526;29;20039;-54
2023/11/13 10:52:24;;;;;;;9.63;6.47;;;;;;;;;;4951507;28;20039;-51
2023/11/13 10:54:58;;;;;;;6.78;5.53;;;;;;;;;;4947298;28;20034;-52
2023/11/13 10:57:26;;;;;;;20.33;6.03;;;;;;;;;;4952491;29;20467;-51
2023/11/13 10:59:53;;;;;;;7.55;3.10;;;;;;;;;;4936935;29;20043;-52
2023/11/13 11:02:43;;;;;;;4.57;3.42;;;;;;;;;;4952586;29;20046;-51
2023/11/13 11:05:13;;;;;;;5.13;3.00;;;;;;;;;;4952623;29;20093;-52
2023/11/13 11:07:43;;;;;;;4.95;3.60;;;;;;;;;;4952049;29;20047;-51
2023/11/13 11:10:09;;;;;;;5.00;3.95;;;;;;;;;;4952685;29;20039;-53
2023/11/13 11:12:37;;;;;;;8.80;4.80;;;;;;;;;;4956404;28;20402;-51
2023/11/13 11:15:22;;;;;;;10.07;5.15;;;;;;;;;;5015447;28;20045;-52
2023/11/13 11:17:59;;;;;;;5.35;4.13;;;;;;;;;;5010244;28;20046;-53
2023/11/13 11:20:38;;;;;;;7.72;4.97;;;;;;;;;;5010662;28;20034;-52
2023/11/13 11:23:07;;;;;;;5.75;5.05;;;28.50;92.20;;;;;;5036749;28;20055;-53
2023/11/13 11:25:47;;;;;;;15.25;6.28;;;28.00;86.80;;;;;;5043156;28;20033;-53
2023/11/13 11:28:32;;;;;;;8.70;5.68;;;;;;;;;;5044555;28;20551;-52
2023/11/13 11:31:04;;;;;;;6.05;3.83;;;;;;;;;;5040678;28;20710;-54
2023/11/13 11:33:31;;;;;;;7.60;4.38;;;;;;;;;;5047262;28;20039;-53
2023/11/13 11:35:57;;;;;;;5.40;4.03;;;;;;;;;;5044904;28;20039;-52
2023/11/13 11:38:29;;;;;;;7.88;4.30;;;;;;;;;;5040096;28;20084;-53
2023/11/13 11:40:58;;;;;;;13.65;4.30;;;;;;;;;;5049924;28;20055;-53
2023/11/13 11:43:35;;;;;;;11.10;6.22;;;27.00;74.50;;;;;;5045146;28;20093;-53
2023/11/13 11:46:03;;;;;;;9.40;5.82;;;26.70;75.70;;;;;;5047778;28;20024;-53
2023/11/13 11:48:31;;;;;;;7.47;3.40;;;;;;;;;;4989505;28;20025;-52
2023/11/13 11:50:57;;;;;;;7.65;5.15;;;;;;;;;;5041429;28;20093;-52
2023/11/13 11:53:23;;;;;;;7.15;3.90;;;;;;;;;;5042260;28;20032;-52
2023/11/13 11:55:49;;;;;;;6.60;3.30;;;25.70;91.80;;;;;;5016238;28;20060;-52
2023/11/13 11:58:16;;;;;;;7.05;3.22;;;25.40;86.10;;;;;;5047555;28;20060;-52
2023/11/13 12:00:44;;;;;;;4.22;2.65;;;;;;;;;;5048681;28;20583;-53
2023/11/13 12:03:10;;;;;;;14.82;10.77;;;;;;;;;;5039226;28;20076;-52
2023/11/13 12:05:37;;;;;;;4.70;1.73;;;;;;;;;;5043600;28;20029;-51
2023/11/13 12:08:06;;;;;;;16.80;9.57;;;;;;;;;;5039841;28;20447;-53
2023/11/13 12:10:33;;;;;;;3.13;1.98;;;;;;;;;;5048121;28;20029;-52
2023/11/13 12:12:59;;;;;;;4.95;1.75;;;;;;;;;;5048657;28;20060;-52
2023/11/13 12:15:26;;;;;;;6.00;2.63;;;;;;;;;;5043506;28;20037;-52
2023/11/13 12:17:53;;;;;;;10.65;2.72;;;;;;;;;;5038716;28;20044;-52
2023/11/13 12:20:19;;;;;;;3.88;1.98;;;;;;;;;;5041610;28;20060;-52
2023/11/13 12:22:45;;;;;;;3.90;2.03;;;;;;;;;;5039831;28;20175;-51
2023/11/13 12:25:12;;;;;;;5.38;1.98;;;;;;;;;;5039225;28;20061;-52
2023/11/13 12:27:42;;;;;;;5.30;2.22;;;;;;;;;;5025270;28;20459;-51
2023/11/13 12:30:24;;;;;;;14.27;5.78;;;22.00;85.20;;;;;;5008310;28;20184;-52
2023/11/13 12:32:51;;;;;;;;;;;22.10;94.80;;;;;;5039238;28;20522;-53
2023/11/13 12:35:17;;;;;;;28.42;16.27;;;;;;;;;;5042691;28;20360;-54
2023/11/13 12:37:46;;;;;;;7.93;3.08;;;;;;;;;;5040051;28;20056;-53
2023/11/13 12:40:16;;;;;;;28.00;20.70;;;21.40;83.40;;;;;;5039218;28;20052;-53
2023/11/13 12:42:43;;;;;;;11.98;6.28;;;21.50;83.70;;;;;;5046481;28;20103;-53
2023/11/13 12:45:12;;;;;;;5.70;3.25;;;21.70;84.00;;;;;;5042550;28;20415;-53
2023/11/13 12:47:42;;;;;;;14.20;7.55;;;21.70;84.40;;;;;;5041875;28;20068;-53
2023/11/13 12:50:12;;;;;;;3.50;2.20;;;;;;;;;;5041942;28;20084;-52
2023/11/13 12:52:38;;;;;;;7.00;2.85;;;;;;;;;;5041510;28;20120;-53
2023/11/13 12:55:12;;;;;;;4.90;1.92;;;;;;;;;;5017547;28;20037;-51
2023/11/13 12:57:42;;;;;;;4.97;2.03;;;;;;;;;;5047950;28;20033;-51
2023/11/13 13:00:14;;;;;;;6.93;2.40;;;20.30;97.90;;;;;;5040724;28;20044;-51
2023/11/13 13:02:43;;;;;;;10.38;4.70;;;20.00;93.80;;;;;;4994433;28;20393;-51
2023/11/13 13:05:11;;;;;;;8.15;5.05;;;19.70;88.50;;;;;;5040316;28;20099;-52
2023/11/13 13:07:37;;;;;;;10.82;6.40;;;;;;;;;;5045679;28;20036;-52
2023/11/13 13:10:06;;;;;;;9.75;4.80;;;19.20;90.50;;;;;;5025523;28;20045;-51
2023/11/13 13:12:32;;;;;;;8.07;4.38;;;19.10;90.70;;;;;;4972521;28;20566;-52
2023/11/13 13:14:57;;;;;;;17.27;7.22;;;19.10;91.10;;;;;;5043632;28;20112;-52
2023/11/13 13:17:26;;;;;;;12.98;6.60;;;19.10;91.40;;;;;;5044909;28;20033;-52